sensor_id;sensor_type;location;lat;lon;timestamp;P1;durP1;ratioP1;P2;durP2;ratioP2
24357;SDS011;13668;52.154;5.580;2023-07-20T00:00:23;3.63;;;2.15;;
24357;SDS011;13668;52.154;5.580;2023-07-20T00:02:52;2.40;;;2.20;;
24357;SDS011;13668;52.154;5.580;2023-07-20T00:05:18;2.35;;;1.75;;
24357;SDS011;13668;52.154;5.580;2023-07-20T00:07:46;1.30;;;1.15;;
24357;SDS011;13668;52.154;5.580;2023-07-20T00:10:12;1.63;;;1.52;;
24357;SDS011;13668;52.154;5.580;2023-07-20T00:12:38;2.25;;;1.98;;
24357;SDS011;13668;52.154;5.580;2023-07-20T00:15:04;3.63;;;1.90;;
24357;SDS011;13668;52.154;5.580;2023-07-20T00:17:30;1.60;;;1.48;;
24357;SDS011;13668;52.154;5.580;2023-07-20T00:19:56;1.50;;;1.40;;
24357;SDS011;13668;52.154;5.580;2023-07-20T00:22:22;1.70;;;1.52;;
24357;SDS011;13668;52.154;5.580;2023-07-20T00:24:48;2.05;;;1.52;;
24357;SDS011;13668;52.154;5.580;2023-07-20T00:27:14;1.55;;;1.20;;
24357;SDS011;13668;52.154;5.580;2023-07-20T00:29:43;1.20;;;1.10;;
24357;SDS011;13668;52.154;5.580;2023-07-20T00:32:09;1.20;;;1.10;;
24357;SDS011;13668;52.154;5.580;2023-07-20T00:34:35;1.25;;;1.15;;
24357;SDS011;13668;52.154;5.580;2023-07-20T00:37:01;1.52;;;1.38;;
24357;SDS011;13668;52.154;5.580;2023-07-20T00:39:27;1.15;;;1.05;;
24357;SDS011;13668;52.154;5.580;2023-07-20T00:41:53;3.70;;;1.20;;
24357;SDS011;13668;52.154;5.580;2023-07-20T00:44:19;1.98;;;1.15;;
24357;SDS011;13668;52.154;5.580;2023-07-20T00:46:45;1.20;;;1.10;;
24357;SDS011;13668;52.154;5.580;2023-07-20T00:49:11;0.90;;;0.90;;
24357;SDS011;13668;52.154;5.580;2023-07-20T00:51:37;1.73;;;1.20;;
24357;SDS011;13668;52.154;5.580;2023-07-20T00:54:03;0.65;;;0.65;;
24357;SDS011;13668;52.154;5.580;2023-07-20T00:56:29;1.52;;;0.90;;
24357;SDS011;13668;52.154;5.580;2023-07-20T00:58:55;1.33;;;1.15;;
24357;SDS011;13668;52.154;5.580;2023-07-20T01:01:22;1.27;;;0.90;;
24357;SDS011;13668;52.154;5.580;2023-07-20T01:03:48;0.90;;;0.90;;
24357;SDS011;13668;52.154;5.580;2023-07-20T01:06:15;1.02;;;1.00;;
24357;SDS011;13668;52.154;5.580;2023-07-20T01:08:46;1.00;;;0.90;;
24357;SDS011;13668;52.154;5.580;2023-07-20T01:11:16;1.20;;;1.10;;
24357;SDS011;13668;52.154;5.580;2023-07-20T01:13:43;0.77;;;0.77;;
24357;SDS011;13668;52.154;5.580;2023-07-20T01:16:10;1.27;;;1.17;;
24357;SDS011;13668;52.154;5.580;2023-07-20T01:18:36;1.35;;;0.93;;
24357;SDS011;13668;52.154;5.580;2023-07-20T01:21:03;1.15;;;1.05;;
24357;SDS011;13668;52.154;5.580;2023-07-20T01:29:00;1.45;;;0.90;;
24357;SDS011;13668;52.154;5.580;2023-07-20T01:31:34;1.00;;;0.88;;
24357;SDS011;13668;52.154;5.580;2023-07-20T01:34:02;1.45;;;1.05;;
24357;SDS011;13668;52.154;5.580;2023-07-20T01:36:30;2.40;;;1.25;;
24357;SDS011;13668;52.154;5.580;2023-07-20T01:38:56;1.50;;;1.10;;
24357;SDS011;13668;52.154;5.580;2023-07-20T01:41:23;1.80;;;1.40;;
24357;SDS011;13668;52.154;5.580;2023-07-20T01:43:49;0.98;;;0.88;;
24357;SDS011;13668;52.154;5.580;2023-07-20T01:46:15;1.30;;;1.20;;
24357;SDS011;13668;52.154;5.580;2023-07-20T01:48:41;1.10;;;1.00;;
24357;SDS011;13668;52.154;5.580;2023-07-20T01:51:07;1.15;;;0.98;;
24357;SDS011;13668;52.154;5.580;2023-07-20T01:53:33;2.28;;;1.40;;
24357;SDS011;13668;52.154;5.580;2023-07-20T01:55:59;2.25;;;1.48;;
24357;SDS011;13668;52.154;5.580;2023-07-20T01:58:25;1.25;;;1.15;;
24357;SDS011;13668;52.154;5.580;2023-07-20T02:00:51;1.45;;;1.35;;
24357;SDS011;13668;52.154;5.580;2023-07-20T02:03:17;1.23;;;1.13;;
24357;SDS011;13668;52.154;5.580;2023-07-20T02:05:43;2.35;;;1.30;;
24357;SDS011;13668;52.154;5.580;2023-07-20T02:08:09;1.27;;;1.17;;
24357;SDS011;13668;52.154;5.580;2023-07-20T02:10:35;1.48;;;1.38;;
24357;SDS011;13668;52.154;5.580;2023-07-20T02:13:01;1.35;;;1.25;;
24357;SDS011;13668;52.154;5.580;2023-07-20T02:15:27;1.50;;;1.40;;
24357;SDS011;13668;52.154;5.580;2023-07-20T02:17:53;1.17;;;1.08;;
24357;SDS011;13668;52.154;5.580;2023-07-20T02:20:19;1.52;;;1.42;;
24357;SDS011;13668;52.154;5.580;2023-07-20T02:22:46;2.03;;;1.45;;
24357;SDS011;13668;52.154;5.580;2023-07-20T02:25:12;1.35;;;1.25;;
24357;SDS011;13668;52.154;5.580;2023-07-20T02:27:38;1.38;;;1.25;;
24357;SDS011;13668;52.154;5.580;2023-07-20T02:30:04;1.33;;;1.23;;
24357;SDS011;13668;52.154;5.580;2023-07-20T02:32:34;1.77;;;1.50;;
24357;SDS011;13668;52.154;5.580;2023-07-20T02:35:00;1.60;;;1.50;;
24357;SDS011;13668;52.154;5.580;2023-07-20T02:37:29;1.65;;;1.10;;
24357;SDS011;13668;52.154;5.580;2023-07-20T02:39:55;1.42;;;1.33;;
24357;SDS011;13668;52.154;5.580;2023-07-20T02:42:21;1.83;;;1.70;;
24357;SDS011;13668;52.154;5.580;2023-07-20T02:44:49;1.75;;;1.45;;
24357;SDS011;13668;52.154;5.580;2023-07-20T02:47:14;1.60;;;1.48;;
24357;SDS011;13668;52.154;5.580;2023-07-20T02:49:41;2.17;;;1.80;;
24357;SDS011;13668;52.154;5.580;2023-07-20T02:52:07;2.05;;;1.65;;
24357;SDS011;13668;52.154;5.580;2023-07-20T02:54:33;2.17;;;1.98;;
24357;SDS011;13668;52.154;5.580;2023-07-20T02:56:59;1.85;;;1.65;;
24357;SDS011;13668;52.154;5.580;2023-07-20T02:59:26;1.88;;;1.77;;
24357;SDS011;13668;52.154;5.580;2023-07-20T03:01:52;2.33;;;2.13;;
24357;SDS011;13668;52.154;5.580;2023-07-20T03:04:19;1.85;;;1.75;;
24357;SDS011;13668;52.154;5.580;2023-07-20T03:06:45;2.05;;;1.85;;
24357;SDS011;13668;52.154;5.580;2023-07-20T03:09:11;1.60;;;1.50;;
24357;SDS011;13668;52.154;5.580;2023-07-20T03:11:37;2.03;;;1.52;;
24357;SDS011;13668;52.154;5.580;2023-07-20T03:14:03;1.98;;;1.80;;
24357;SDS011;13668;52.154;5.580;2023-07-20T03:16:29;1.52;;;1.42;;
24357;SDS011;13668;52.154;5.580;2023-07-20T03:18:58;2.00;;;1.73;;
24357;SDS011;13668;52.154;5.580;2023-07-20T03:21:24;1.95;;;1.85;;
24357;SDS011;13668;52.154;5.580;2023-07-20T03:23:50;1.70;;;1.60;;
24357;SDS011;13668;52.154;5.580;2023-07-20T03:26:16;2.13;;;1.80;;
24357;SDS011;13668;52.154;5.580;2023-07-20T03:28:42;2.05;;;1.85;;
24357;SDS011;13668;52.154;5.580;2023-07-20T03:31:08;2.13;;;1.92;;
24357;SDS011;13668;52.154;5.580;2023-07-20T03:33:34;1.83;;;1.73;;
24357;SDS011;13668;52.154;5.580;2023-07-20T03:36:00;2.63;;;1.80;;
24357;SDS011;13668;52.154;5.580;2023-07-20T03:38:27;2.20;;;1.63;;
24357;SDS011;13668;52.154;5.580;2023-07-20T03:40:57;2.08;;;1.73;;
24357;SDS011;13668;52.154;5.580;2023-07-20T03:43:24;2.95;;;2.22;;
24357;SDS011;13668;52.154;5.580;2023-07-20T03:45:50;1.90;;;1.60;;
24357;SDS011;13668;52.154;5.580;2023-07-20T03:48:17;2.17;;;1.95;;
24357;SDS011;13668;52.154;5.580;2023-07-20T03:50:46;2.58;;;2.38;;
24357;SDS011;13668;52.154;5.580;2023-07-20T03:53:13;3.08;;;2.78;;
24357;SDS011;13668;52.154;5.580;2023-07-20T03:55:40;2.08;;;1.88;;
24357;SDS011;13668;52.154;5.580;2023-07-20T03:58:06;1.80;;;1.70;;
24357;SDS011;13668;52.154;5.580;2023-07-20T04:00:33;1.95;;;1.70;;
24357;SDS011;13668;52.154;5.580;2023-07-20T04:03:00;2.83;;;2.60;;
24357;SDS011;13668;52.154;5.580;2023-07-20T04:05:26;3.28;;;2.70;;
24357;SDS011;13668;52.154;5.580;2023-07-20T04:07:52;2.92;;;2.20;;
24357;SDS011;13668;52.154;5.580;2023-07-20T04:10:18;2.45;;;2.30;;
24357;SDS011;13668;52.154;5.580;2023-07-20T04:12:44;2.83;;;2.63;;
24357;SDS011;13668;52.154;5.580;2023-07-20T04:15:12;2.42;;;2.22;;
24357;SDS011;13668;52.154;5.580;2023-07-20T04:17:38;3.88;;;2.33;;
24357;SDS011;13668;52.154;5.580;2023-07-20T04:20:04;2.83;;;2.42;;
24357;SDS011;13668;52.154;5.580;2023-07-20T04:22:31;2.40;;;2.20;;
24357;SDS011;13668;52.154;5.580;2023-07-20T04:24:57;2.72;;;2.25;;
24357;SDS011;13668;52.154;5.580;2023-07-20T04:27:23;2.28;;;1.92;;
24357;SDS011;13668;52.154;5.580;2023-07-20T04:29:49;2.60;;;1.83;;
24357;SDS011;13668;52.154;5.580;2023-07-20T04:32:15;2.10;;;1.90;;
24357;SDS011;13668;52.154;5.580;2023-07-20T04:34:41;2.20;;;2.00;;
24357;SDS011;13668;52.154;5.580;2023-07-20T04:37:07;2.75;;;2.40;;
24357;SDS011;13668;52.154;5.580;2023-07-20T04:39:33;2.05;;;1.85;;
24357;SDS011;13668;52.154;5.580;2023-07-20T04:41:59;1.90;;;1.80;;
24357;SDS011;13668;52.154;5.580;2023-07-20T04:44:25;3.22;;;2.47;;
24357;SDS011;13668;52.154;5.580;2023-07-20T04:46:51;2.35;;;2.15;;
24357;SDS011;13668;52.154;5.580;2023-07-20T04:49:17;2.28;;;1.88;;
24357;SDS011;13668;52.154;5.580;2023-07-20T04:51:43;2.50;;;2.08;;
24357;SDS011;13668;52.154;5.580;2023-07-20T04:54:09;2.03;;;1.83;;
24357;SDS011;13668;52.154;5.580;2023-07-20T04:56:35;1.85;;;1.75;;
24357;SDS011;13668;52.154;5.580;2023-07-20T04:59:01;2.70;;;2.50;;
24357;SDS011;13668;52.154;5.580;2023-07-20T05:01:27;1.88;;;1.73;;
24357;SDS011;13668;52.154;5.580;2023-07-20T05:03:53;4.70;;;2.40;;
24357;SDS011;13668;52.154;5.580;2023-07-20T05:06:19;2.50;;;1.77;;
24357;SDS011;13668;52.154;5.580;2023-07-20T05:08:45;2.08;;;1.90;;
24357;SDS011;13668;52.154;5.580;2023-07-20T05:11:11;1.73;;;1.63;;
24357;SDS011;13668;52.154;5.580;2023-07-20T05:13:37;2.10;;;1.77;;
24357;SDS011;13668;52.154;5.580;2023-07-20T05:16:03;2.10;;;1.90;;
24357;SDS011;13668;52.154;5.580;2023-07-20T05:18:29;2.42;;;2.20;;
24357;SDS011;13668;52.154;5.580;2023-07-20T05:20:56;2.50;;;1.83;;
24357;SDS011;13668;52.154;5.580;2023-07-20T05:23:22;2.63;;;2.15;;
24357;SDS011;13668;52.154;5.580;2023-07-20T05:25:54;3.22;;;2.28;;
24357;SDS011;13668;52.154;5.580;2023-07-20T05:28:24;4.50;;;2.35;;
24357;SDS011;13668;52.154;5.580;2023-07-20T05:30:50;2.92;;;2.63;;
24357;SDS011;13668;52.154;5.580;2023-07-20T05:33:19;2.33;;;2.10;;
24357;SDS011;13668;52.154;5.580;2023-07-20T05:35:46;2.63;;;2.42;;
24357;SDS011;13668;52.154;5.580;2023-07-20T05:38:12;2.42;;;2.22;;
24357;SDS011;13668;52.154;5.580;2023-07-20T05:40:39;2.38;;;2.17;;
24357;SDS011;13668;52.154;5.580;2023-07-20T05:43:05;2.08;;;1.98;;
24357;SDS011;13668;52.154;5.580;2023-07-20T05:45:31;2.42;;;2.20;;
24357;SDS011;13668;52.154;5.580;2023-07-20T05:47:57;2.22;;;2.03;;
24357;SDS011;13668;52.154;5.580;2023-07-20T05:50:23;2.25;;;2.10;;
24357;SDS011;13668;52.154;5.580;2023-07-20T05:52:52;2.40;;;2.08;;
24357;SDS011;13668;52.154;5.580;2023-07-20T05:55:17;4.43;;;2.50;;
24357;SDS011;13668;52.154;5.580;2023-07-20T05:57:44;4.88;;;2.08;;
24357;SDS011;13668;52.154;5.580;2023-07-20T06:00:10;2.28;;;2.08;;
24357;SDS011;13668;52.154;5.580;2023-07-20T06:02:37;2.10;;;1.90;;
24357;SDS011;13668;52.154;5.580;2023-07-20T06:05:04;2.17;;;1.75;;
24357;SDS011;13668;52.154;5.580;2023-07-20T06:07:30;1.83;;;1.70;;
24357;SDS011;13668;52.154;5.580;2023-07-20T06:09:56;1.50;;;1.40;;
24357;SDS011;13668;52.154;5.580;2023-07-20T06:12:23;1.45;;;1.35;;
24357;SDS011;13668;52.154;5.580;2023-07-20T06:14:49;1.48;;;1.35;;
24357;SDS011;13668;52.154;5.580;2023-07-20T06:17:15;1.65;;;0.90;;
24357;SDS011;13668;52.154;5.580;2023-07-20T06:19:41;1.33;;;1.23;;
24357;SDS011;13668;52.154;5.580;2023-07-20T06:22:07;1.40;;;1.30;;
24357;SDS011;13668;52.154;5.580;2023-07-20T06:24:33;1.30;;;1.20;;
24357;SDS011;13668;52.154;5.580;2023-07-20T06:26:59;0.90;;;0.90;;
24357;SDS011;13668;52.154;5.580;2023-07-20T06:29:25;1.83;;;1.00;;
24357;SDS011;13668;52.154;5.580;2023-07-20T06:31:51;0.73;;;0.70;;
24357;SDS011;13668;52.154;5.580;2023-07-20T06:34:17;0.77;;;0.73;;
24357;SDS011;13668;52.154;5.580;2023-07-20T06:36:44;0.63;;;0.63;;
24357;SDS011;13668;52.154;5.580;2023-07-20T06:39:10;0.50;;;0.45;;
24357;SDS011;13668;52.154;5.580;2023-07-20T06:41:36;0.88;;;0.70;;
24357;SDS011;13668;52.154;5.580;2023-07-20T06:44:02;1.05;;;0.60;;
24357;SDS011;13668;52.154;5.580;2023-07-20T06:46:28;0.32;;;0.32;;
24357;SDS011;13668;52.154;5.580;2023-07-20T06:48:54;0.80;;;0.75;;
24357;SDS011;13668;52.154;5.580;2023-07-20T06:51:20;0.80;;;0.50;;
24357;SDS011;13668;52.154;5.580;2023-07-20T06:53:49;0.70;;;0.60;;
24357;SDS011;13668;52.154;5.580;2023-07-20T06:56:15;0.40;;;0.40;;
24357;SDS011;13668;52.154;5.580;2023-07-20T06:58:41;0.70;;;0.40;;
24357;SDS011;13668;52.154;5.580;2023-07-20T07:01:07;0.82;;;0.68;;
24357;SDS011;13668;52.154;5.580;2023-07-20T07:03:33;0.50;;;0.50;;
24357;SDS011;13668;52.154;5.580;2023-07-20T07:05:59;1.10;;;0.73;;
24357;SDS011;13668;52.154;5.580;2023-07-20T07:08:25;1.00;;;0.70;;
24357;SDS011;13668;52.154;5.580;2023-07-20T07:10:52;1.58;;;0.60;;
24357;SDS011;13668;52.154;5.580;2023-07-20T07:13:18;1.23;;;0.57;;
24357;SDS011;13668;52.154;5.580;2023-07-20T07:15:44;0.50;;;0.50;;
24357;SDS011;13668;52.154;5.580;2023-07-20T07:18:11;0.60;;;0.60;;
24357;SDS011;13668;52.154;5.580;2023-07-20T07:20:37;0.32;;;0.20;;
24357;SDS011;13668;52.154;5.580;2023-07-20T07:23:03;0.30;;;0.30;;
24357;SDS011;13668;52.154;5.580;2023-07-20T07:25:29;0.65;;;0.28;;
24357;SDS011;13668;52.154;5.580;2023-07-20T07:27:56;1.00;;;0.43;;
24357;SDS011;13668;52.154;5.580;2023-07-20T07:30:22;0.52;;;0.30;;
24357;SDS011;13668;52.154;5.580;2023-07-20T07:32:48;0.45;;;0.32;;
24357;SDS011;13668;52.154;5.580;2023-07-20T07:35:14;0.63;;;0.20;;
24357;SDS011;13668;52.154;5.580;2023-07-20T07:37:40;0.60;;;0.17;;
24357;SDS011;13668;52.154;5.580;2023-07-20T07:40:06;0.45;;;0.30;;
24357;SDS011;13668;52.154;5.580;2023-07-20T07:42:33;0.22;;;0.20;;
24357;SDS011;13668;52.154;5.580;2023-07-20T07:44:59;0.10;;;0.10;;
24357;SDS011;13668;52.154;5.580;2023-07-20T07:47:25;0.20;;;0.20;;
24357;SDS011;13668;52.154;5.580;2023-07-20T07:49:51;0.32;;;0.20;;
24357;SDS011;13668;52.154;5.580;2023-07-20T07:52:17;0.22;;;0.15;;
24357;SDS011;13668;52.154;5.580;2023-07-20T07:54:43;0.30;;;0.30;;
24357;SDS011;13668;52.154;5.580;2023-07-20T07:57:09;0.75;;;0.30;;
24357;SDS011;13668;52.154;5.580;2023-07-20T07:59:35;0.93;;;0.40;;
24357;SDS011;13668;52.154;5.580;2023-07-20T08:02:03;0.68;;;0.40;;
24357;SDS011;13668;52.154;5.580;2023-07-20T08:04:30;0.98;;;0.32;;
24357;SDS011;13668;52.154;5.580;2023-07-20T08:06:56;0.40;;;0.40;;
24357;SDS011;13668;52.154;5.580;2023-07-20T08:09:22;0.30;;;0.28;;
24357;SDS011;13668;52.154;5.580;2023-07-20T08:11:48;0.40;;;0.20;;
24357;SDS011;13668;52.154;5.580;2023-07-20T08:14:14;0.10;;;0.10;;
24357;SDS011;13668;52.154;5.580;2023-07-20T08:16:40;0.10;;;0.10;;
24357;SDS011;13668;52.154;5.580;2023-07-20T08:19:07;0.28;;;0.20;;
24357;SDS011;13668;52.154;5.580;2023-07-20T08:21:33;0.20;;;0.10;;
24357;SDS011;13668;52.154;5.580;2023-07-20T08:23:59;0.30;;;0.13;;
24357;SDS011;13668;52.154;5.580;2023-07-20T08:26:25;0.30;;;0.20;;
24357;SDS011;13668;52.154;5.580;2023-07-20T08:28:51;0.70;;;0.30;;
24357;SDS011;13668;52.154;5.580;2023-07-20T08:31:17;0.10;;;0.10;;
24357;SDS011;13668;52.154;5.580;2023-07-20T08:33:43;0.20;;;0.20;;
24357;SDS011;13668;52.154;5.580;2023-07-20T08:36:09;0.70;;;0.17;;
24357;SDS011;13668;52.154;5.580;2023-07-20T08:38:36;0.20;;;0.20;;
24357;SDS011;13668;52.154;5.580;2023-07-20T08:41:02;1.05;;;0.10;;
24357;SDS011;13668;52.154;5.580;2023-07-20T08:43:28;0.17;;;0.10;;
24357;SDS011;13668;52.154;5.580;2023-07-20T08:45:54;0.52;;;0.20;;
24357;SDS011;13668;52.154;5.580;2023-07-20T08:48:24;0.28;;;0.13;;
24357;SDS011;13668;52.154;5.580;2023-07-20T08:50:50;0.30;;;0.20;;
24357;SDS011;13668;52.154;5.580;2023-07-20T08:53:17;0.45;;;0.10;;
24357;SDS011;13668;52.154;5.580;2023-07-20T08:55:44;0.20;;;0.20;;
24357;SDS011;13668;52.154;5.580;2023-07-20T08:58:13;0.10;;;0.10;;
24357;SDS011;13668;52.154;5.580;2023-07-20T09:00:41;0.10;;;0.10;;
24357;SDS011;13668;52.154;5.580;2023-07-20T09:03:07;0.30;;;0.22;;
24357;SDS011;13668;52.154;5.580;2023-07-20T09:05:33;0.15;;;0.10;;
24357;SDS011;13668;52.154;5.580;2023-07-20T09:08:00;0.28;;;0.28;;
24357;SDS011;13668;52.154;5.580;2023-07-20T09:10:28;0.30;;;0.30;;
24357;SDS011;13668;52.154;5.580;2023-07-20T09:12:54;0.10;;;0.10;;
24357;SDS011;13668;52.154;5.580;2023-07-20T09:15:21;0.10;;;0.10;;
24357;SDS011;13668;52.154;5.580;2023-07-20T09:17:48;0.52;;;0.30;;
24357;SDS011;13668;52.154;5.580;2023-07-20T09:20:15;0.20;;;0.20;;
24357;SDS011;13668;52.154;5.580;2023-07-20T09:22:41;0.15;;;0.15;;
24357;SDS011;13668;52.154;5.580;2023-07-20T09:27:40;1.10;;;0.20;;
24357;SDS011;13668;52.154;5.580;2023-07-20T09:30:07;0.20;;;0.20;;
24357;SDS011;13668;52.154;5.580;2023-07-20T09:32:47;0.20;;;0.20;;
24357;SDS011;13668;52.154;5.580;2023-07-20T09:35:17;0.22;;;0.20;;
24357;SDS011;13668;52.154;5.580;2023-07-20T09:37:47;0.20;;;0.10;;
24357;SDS011;13668;52.154;5.580;2023-07-20T09:40:16;0.10;;;0.10;;
24357;SDS011;13668;52.154;5.580;2023-07-20T09:42:42;0.30;;;0.20;;
24357;SDS011;13668;52.154;5.580;2023-07-20T09:45:09;0.30;;;0.08;;
24357;SDS011;13668;52.154;5.580;2023-07-20T09:47:35;0.32;;;0.20;;
24357;SDS011;13668;52.154;5.580;2023-07-20T09:50:06;0.15;;;0.10;;
24357;SDS011;13668;52.154;5.580;2023-07-20T09:52:36;0.43;;;0.10;;
24357;SDS011;13668;52.154;5.580;2023-07-20T09:55:03;0.85;;;0.13;;
24357;SDS011;13668;52.154;5.580;2023-07-20T09:57:29;0.30;;;0.10;;
24357;SDS011;13668;52.154;5.580;2023-07-20T09:59:55;0.10;;;0.10;;
24357;SDS011;13668;52.154;5.580;2023-07-20T10:02:25;0.10;;;0.10;;
24357;SDS011;13668;52.154;5.580;2023-07-20T10:04:52;0.20;;;0.10;;
24357;SDS011;13668;52.154;5.580;2023-07-20T10:07:19;0.00;;;0.00;;
24357;SDS011;13668;52.154;5.580;2023-07-20T10:09:46;0.13;;;0.10;;
24357;SDS011;13668;52.154;5.580;2023-07-20T10:12:13;0.10;;;0.10;;
24357;SDS011;13668;52.154;5.580;2023-07-20T10:14:41;0.35;;;0.10;;
24357;SDS011;13668;52.154;5.580;2023-07-20T10:17:09;0.30;;;0.10;;
24357;SDS011;13668;52.154;5.580;2023-07-20T10:19:43;0.10;;;0.10;;
24357;SDS011;13668;52.154;5.580;2023-07-20T10:22:12;0.30;;;0.20;;
24357;SDS011;13668;52.154;5.580;2023-07-20T10:24:38;0.45;;;0.10;;
24357;SDS011;13668;52.154;5.580;2023-07-20T10:27:04;0.30;;;0.20;;
24357;SDS011;13668;52.154;5.580;2023-07-20T10:29:30;0.85;;;0.10;;
24357;SDS011;13668;52.154;5.580;2023-07-20T10:31:57;0.17;;;0.10;;
24357;SDS011;13668;52.154;5.580;2023-07-20T10:34:23;0.10;;;0.10;;
24357;SDS011;13668;52.154;5.580;2023-07-20T10:36:50;0.43;;;0.30;;
24357;SDS011;13668;52.154;5.580;2023-07-20T10:39:32;0.32;;;0.13;;
24357;SDS011;13668;52.154;5.580;2023-07-20T10:42:02;0.17;;;0.10;;
24357;SDS011;13668;52.154;5.580;2023-07-20T10:44:28;0.20;;;0.17;;
24357;SDS011;13668;52.154;5.580;2023-07-20T10:46:59;0.20;;;0.20;;
24357;SDS011;13668;52.154;5.580;2023-07-20T10:49:25;0.60;;;0.10;;
24357;SDS011;13668;52.154;5.580;2023-07-20T10:51:58;0.10;;;0.10;;
24357;SDS011;13668;52.154;5.580;2023-07-20T10:56:54;0.20;;;0.20;;
24357;SDS011;13668;52.154;5.580;2023-07-20T11:01:50;0.17;;;0.13;;
24357;SDS011;13668;52.154;5.580;2023-07-20T11:04:21;0.30;;;0.10;;
24357;SDS011;13668;52.154;5.580;2023-07-20T11:07:03;0.10;;;0.10;;
24357;SDS011;13668;52.154;5.580;2023-07-20T11:09:33;0.43;;;0.20;;
24357;SDS011;13668;52.154;5.580;2023-07-20T11:12:12;0.25;;;0.20;;
24357;SDS011;13668;52.154;5.580;2023-07-20T11:14:42;0.10;;;0.10;;
24357;SDS011;13668;52.154;5.580;2023-07-20T11:17:15;0.20;;;0.17;;
24357;SDS011;13668;52.154;5.580;2023-07-20T11:19:45;0.25;;;0.20;;
24357;SDS011;13668;52.154;5.580;2023-07-20T11:22:13;0.10;;;0.08;;
24357;SDS011;13668;52.154;5.580;2023-07-20T11:24:41;0.10;;;0.10;;
24357;SDS011;13668;52.154;5.580;2023-07-20T11:27:08;0.10;;;0.10;;
24357;SDS011;13668;52.154;5.580;2023-07-20T11:29:34;0.13;;;0.10;;
24357;SDS011;13668;52.154;5.580;2023-07-20T11:32:01;0.10;;;0.10;;
24357;SDS011;13668;52.154;5.580;2023-07-20T11:34:29;0.70;;;0.17;;
24357;SDS011;13668;52.154;5.580;2023-07-20T11:36:55;0.10;;;0.08;;
24357;SDS011;13668;52.154;5.580;2023-07-20T11:39:21;0.10;;;0.10;;
24357;SDS011;13668;52.154;5.580;2023-07-20T11:41:50;0.47;;;0.17;;
24357;SDS011;13668;52.154;5.580;2023-07-20T11:44:16;0.30;;;0.30;;
24357;SDS011;13668;52.154;5.580;2023-07-20T11:46:43;0.10;;;0.10;;
24357;SDS011;13668;52.154;5.580;2023-07-20T11:49:09;0.15;;;0.10;;
24357;SDS011;13668;52.154;5.580;2023-07-20T11:51:35;0.20;;;0.20;;
24357;SDS011;13668;52.154;5.580;2023-07-20T11:54:04;0.60;;;0.22;;
24357;SDS011;13668;52.154;5.580;2023-07-20T11:56:30;0.57;;;0.55;;
24357;SDS011;13668;52.154;5.580;2023-07-20T11:58:57;0.57;;;0.20;;
24357;SDS011;13668;52.154;5.580;2023-07-20T12:01:29;0.98;;;0.10;;
24357;SDS011;13668;52.154;5.580;2023-07-20T12:04:00;0.15;;;0.10;;
24357;SDS011;13668;52.154;5.580;2023-07-20T12:06:30;0.17;;;0.10;;
24357;SDS011;13668;52.154;5.580;2023-07-20T12:08:57;0.10;;;0.10;;
24357;SDS011;13668;52.154;5.580;2023-07-20T12:11:30;0.25;;;0.10;;
24357;SDS011;13668;52.154;5.580;2023-07-20T12:13:57;0.20;;;0.20;;
24357;SDS011;13668;52.154;5.580;2023-07-20T12:16:26;0.20;;;0.20;;
24357;SDS011;13668;52.154;5.580;2023-07-20T12:18:58;0.10;;;0.10;;
24357;SDS011;13668;52.154;5.580;2023-07-20T12:21:24;0.10;;;0.10;;
24357;SDS011;13668;52.154;5.580;2023-07-20T12:23:50;0.40;;;0.17;;
24357;SDS011;13668;52.154;5.580;2023-07-20T12:26:16;0.00;;;0.00;;
24357;SDS011;13668;52.154;5.580;2023-07-20T12:28:42;0.20;;;0.20;;
24357;SDS011;13668;52.154;5.580;2023-07-20T12:31:09;1.55;;;0.30;;
24357;SDS011;13668;52.154;5.580;2023-07-20T12:33:36;0.73;;;0.10;;
24357;SDS011;13668;52.154;5.580;2023-07-20T12:36:03;0.20;;;0.20;;
24357;SDS011;13668;52.154;5.580;2023-07-20T12:38:29;0.80;;;0.38;;
24357;SDS011;13668;52.154;5.580;2023-07-20T12:40:56;0.32;;;0.13;;
24357;SDS011;13668;52.154;5.580;2023-07-20T12:43:22;0.10;;;0.10;;
24357;SDS011;13668;52.154;5.580;2023-07-20T12:45:48;0.10;;;0.10;;
24357;SDS011;13668;52.154;5.580;2023-07-20T12:48:14;0.32;;;0.10;;
24357;SDS011;13668;52.154;5.580;2023-07-20T12:50:40;0.22;;;0.10;;
24357;SDS011;13668;52.154;5.580;2023-07-20T12:53:06;0.20;;;0.20;;
24357;SDS011;13668;52.154;5.580;2023-07-20T12:55:32;0.40;;;0.20;;
24357;SDS011;13668;52.154;5.580;2023-07-20T12:57:58;0.35;;;0.13;;
24357;SDS011;13668;52.154;5.580;2023-07-20T13:00:24;1.30;;;0.20;;
24357;SDS011;13668;52.154;5.580;2023-07-20T13:02:50;0.35;;;0.20;;
24357;SDS011;13668;52.154;5.580;2023-07-20T13:05:16;0.13;;;0.10;;
24357;SDS011;13668;52.154;5.580;2023-07-20T13:07:42;0.28;;;0.28;;
24357;SDS011;13668;52.154;5.580;2023-07-20T13:10:09;0.30;;;0.20;;
24357;SDS011;13668;52.154;5.580;2023-07-20T13:12:36;0.30;;;0.10;;
24357;SDS011;13668;52.154;5.580;2023-07-20T13:15:03;0.10;;;0.10;;
24357;SDS011;13668;52.154;5.580;2023-07-20T13:17:31;1.95;;;0.20;;
24357;SDS011;13668;52.154;5.580;2023-07-20T13:19:57;0.40;;;0.38;;
24357;SDS011;13668;52.154;5.580;2023-07-20T13:22:23;0.43;;;0.10;;
24357;SDS011;13668;52.154;5.580;2023-07-20T13:24:49;0.20;;;0.20;;
24357;SDS011;13668;52.154;5.580;2023-07-20T13:27:18;0.20;;;0.10;;
24357;SDS011;13668;52.154;5.580;2023-07-20T13:29:45;0.20;;;0.20;;
24357;SDS011;13668;52.154;5.580;2023-07-20T13:32:14;0.63;;;0.10;;
24357;SDS011;13668;52.154;5.580;2023-07-20T13:34:43;0.20;;;0.20;;
24357;SDS011;13668;52.154;5.580;2023-07-20T13:37:09;0.00;;;0.00;;
24357;SDS011;13668;52.154;5.580;2023-07-20T13:39:35;0.30;;;0.20;;
24357;SDS011;13668;52.154;5.580;2023-07-20T13:42:01;0.15;;;0.15;;
24357;SDS011;13668;52.154;5.580;2023-07-20T13:44:30;0.20;;;0.17;;
24357;SDS011;13668;52.154;5.580;2023-07-20T13:46:56;0.43;;;0.20;;
24357;SDS011;13668;52.154;5.580;2023-07-20T13:49:22;0.15;;;0.15;;
24357;SDS011;13668;52.154;5.580;2023-07-20T13:51:48;0.20;;;0.20;;
24357;SDS011;13668;52.154;5.580;2023-07-20T13:54:14;0.38;;;0.17;;
24357;SDS011;13668;52.154;5.580;2023-07-20T13:56:40;0.57;;;0.30;;
24357;SDS011;13668;52.154;5.580;2023-07-20T13:59:06;0.40;;;0.30;;
24357;SDS011;13668;52.154;5.580;2023-07-20T14:01:32;0.30;;;0.30;;
24357;SDS011;13668;52.154;5.580;2023-07-20T14:03:59;0.30;;;0.30;;
24357;SDS011;13668;52.154;5.580;2023-07-20T14:06:25;0.40;;;0.32;;
24357;SDS011;13668;52.154;5.580;2023-07-20T14:08:51;0.73;;;0.30;;
24357;SDS011;13668;52.154;5.580;2023-07-20T14:11:18;0.93;;;0.30;;
24357;SDS011;13668;52.154;5.580;2023-07-20T14:13:44;0.22;;;0.20;;
24357;SDS011;13668;52.154;5.580;2023-07-20T14:16:10;0.32;;;0.32;;
24357;SDS011;13668;52.154;5.580;2023-07-20T14:18:36;0.20;;;0.20;;
24357;SDS011;13668;52.154;5.580;2023-07-20T14:21:02;1.08;;;0.43;;
24357;SDS011;13668;52.154;5.580;2023-07-20T14:23:30;1.20;;;0.28;;
24357;SDS011;13668;52.154;5.580;2023-07-20T14:25:57;0.35;;;0.32;;
24357;SDS011;13668;52.154;5.580;2023-07-20T14:28:23;0.20;;;0.20;;
24357;SDS011;13668;52.154;5.580;2023-07-20T14:30:49;0.50;;;0.35;;
24357;SDS011;13668;52.154;5.580;2023-07-20T14:33:15;0.20;;;0.20;;
24357;SDS011;13668;52.154;5.580;2023-07-20T14:35:41;0.30;;;0.30;;
24357;SDS011;13668;52.154;5.580;2023-07-20T14:38:07;2.83;;;0.30;;
24357;SDS011;13668;52.154;5.580;2023-07-20T14:40:33;0.25;;;0.25;;
24357;SDS011;13668;52.154;5.580;2023-07-20T14:42:59;1.20;;;0.40;;
24357;SDS011;13668;52.154;5.580;2023-07-20T14:45:26;0.30;;;0.20;;
24357;SDS011;13668;52.154;5.580;2023-07-20T14:47:52;0.30;;;0.20;;
24357;SDS011;13668;52.154;5.580;2023-07-20T14:50:22;1.65;;;0.30;;
24357;SDS011;13668;52.154;5.580;2023-07-20T14:52:48;0.43;;;0.30;;
24357;SDS011;13668;52.154;5.580;2023-07-20T14:55:14;0.40;;;0.30;;
24357;SDS011;13668;52.154;5.580;2023-07-20T14:57:40;0.22;;;0.20;;